UKLL Airport Information

Runway Information
Runway 13 Length 10843 ft width 148 ft
Elevation 1071 ft Threshold 0 ft Heading 136
Runway 31 Length 10843 ft Width 148 ft
Elevation 1055 ft Threshold 0 ft Heading 316
Airport Frequencies
Type APP Name RADAR Frequency 126 MHZ
Type ATIS Name ATIS Frequency 128.7 MHZ
Type TWR Name TWR Frequency 128 MHZ
Airport Navaids
Type VOR-DME Name Lviv Frequency 115500 KHZ
Type NDB Name Lviv Frequency 315 KHZ
Type NDB Name Lviv Frequency 315 KHZ
Airport Weather Information & NOTAM
ADDS - METARS form results

(2349 UTC 16 February 2019)
Data provider http://aviationweather.gov/metar/data/
 
METAR text: UKLL 162330Z 18002MPS 9000 NSC M01/M03 Q1025 R31/CLRD// NOSIG
Conditions at: UKLL (LVIV , UA) observed 2330 UTC 16 February 2019
Temperature: -1.0°C (30°F)
Dewpoint: -3.0°C (27°F) [RH = 86%]
Pressure (altimeter): 30.27 inches Hg (1025.0 mb)
Winds: from the S (180 degrees) at 5 MPH (4 knots; 2.1 m/s)
Visibility: 6 miles ( 9 km)
Ceiling: at least 12,000 feet AGL
Clouds: sky clear below 12,000 feet AGL
Weather: no significant weather observed at this time

METAR text: UKLL 162300Z 18002MPS 8000 NSC 01/00 Q1026 R31/D NOSIG
Conditions at: UKLL (LVIV , UA) observed 2300 UTC 16 February 2019
Temperature: 1.0°C (34°F)
Dewpoint: 0.0°C (32°F) [RH = 93%]
Pressure (altimeter): 30.30 inches Hg (1026.0 mb)
Winds: from the S (180 degrees) at 5 MPH (4 knots; 2.1 m/s)
Visibility: 5 miles ( 8 km)
Ceiling: at least 12,000 feet AGL
Clouds: sky clear below 12,000 feet AGL
Weather: no significant weather observed at this time

Forecast for: UKLL (LVIV , UA)
Text: TAF UKLL 162305Z 1700/1724 VRB01MPS 3000 BR BKN007 TX10/1713Z TNM01/1703Z
Forecast period: 0000 to 0600 UTC 17 February 2019
Forecast type: FROM: standard forecast or significant change
Winds: variable direction winds at 2 MPH (2 knots; 1.0 m/s)
Visibility: 1.86 miles (2.99 km)
Ceiling: 700 feet AGL
Clouds: broken clouds at 700 feet AGL
Weather: BR  (mist)
Text: TEMPO 1700/1706 0500 FZFG VV002
Forecast period: 0000 to 0600 UTC 17 February 2019
Forecast type: TEMPORARY: The following changes expected for less than half the time period
Visibility: 0.31 miles (0.50 km)
Ceiling: indefinite ceiling with vertical visibility of 200 feet AGL
Clouds: obscured sky
Weather: FZFG  (freezing fog)
Text: BECMG 1706/1707 27005G10MPS 9999 NSW BKN020
Forecast period: 0600 UTC 17 February 2019 to 0000 UTC 18 February 2019
Forecast type: BECOMING: Conditions expected to become as follows by 0700 UTC 17 February 2019
Winds: from the W (270 degrees) at 12 MPH (10 knots; 5.1 m/s)
gusting to 22 MPH (19 knots; 9.8 m/s)
Visibility: 6 or more miles 10+ km)
Ceiling: 2000 feet AGL
Clouds: broken clouds at 2000 feet AGL
Weather: NSW  (no significant weather)